Time;durP1;ratioP1;P1;durP2;ratioP2;P2;SDS_P1;SDS_P2;PMS_P1;PMS_P2;Temp;Humidity;BMP_temperature;BMP_pressure;BME280_temperature;BME280_humidity;BME280_pressure;Samples;Min_cycle;Max_cycle;Signal;HPM_P1;HPM_P2
2022/11/02 00:00:51;;;;;;;3.65;1.85;;;;;;;22.49;37.50;97574.88;5153587;27;20390;-34
2022/11/02 00:03:16;;;;;;;2.75;1.60;;;;;;;22.51;37.54;97569.59;5149812;27;20023;-34
2022/11/02 00:05:42;;;;;;;2.92;1.70;;;;;;;22.50;37.27;97565.31;5145257;27;20068;-34
2022/11/02 00:08:07;;;;;;;4.70;1.80;;;;;;;22.51;37.47;97569.59;5155771;27;20031;-34
2022/11/02 00:10:33;;;;;;;2.63;1.42;;;;;;;22.51;37.48;97574.38;5155957;27;20023;-35
2022/11/02 00:12:58;;;;;;;2.75;1.60;;;;;;;22.52;37.12;97573.91;5155668;27;20079;-36
2022/11/02 00:15:27;;;;;;;3.08;2.03;;;;;;;22.54;37.27;97574.19;5155773;27;20024;-34
2022/11/02 00:17:57;;;;;;;3.58;1.85;;;;;;;22.52;37.73;97578.66;5155708;27;20097;-34
2022/11/02 00:20:25;;;;;;;3.35;1.75;;;;;;;22.50;37.79;97570.09;5155564;27;20076;-34
2022/11/02 00:22:54;;;;;;;2.40;1.50;;;;;;;22.53;37.50;97578.19;5147812;27;20030;-33
2022/11/02 00:25:22;;;;;;;2.60;1.77;;;;;;;22.52;37.71;97576.66;5135009;27;20034;-34
2022/11/02 00:27:47;;;;;;;4.18;1.45;;;;;;;22.49;37.51;97577.63;5134945;27;20022;-34
2022/11/02 00:30:13;;;;;;;3.35;1.60;;;;;;;22.49;37.47;97577.63;5135018;27;20064;-34
2022/11/02 00:32:38;;;;;;;2.38;1.70;;;;;;;22.52;37.84;97584.97;5134921;27;20113;-34
2022/11/02 00:35:04;;;;;;;2.83;1.77;;;;;;;22.49;37.78;97580.41;5134842;27;20042;-35
2022/11/02 00:37:30;;;;;;;4.10;1.92;;;;;;;22.53;37.83;97577.44;5134683;27;20027;-34
2022/11/02 00:39:56;;;;;;;3.60;1.80;;;;;;;22.47;37.91;97582.13;5134527;27;20031;-34
2022/11/02 00:42:21;;;;;;;4.72;2.10;;;;;;;22.51;37.59;97577.91;5134676;27;20031;-34
2022/11/02 00:44:47;;;;;;;3.85;2.08;;;;;;;22.51;37.71;97577.13;5134459;27;20019;-34
2022/11/02 00:47:12;;;;;;;4.13;1.95;;;;;;;22.52;37.84;97576.66;5134603;27;20474;-34
2022/11/02 00:49:38;;;;;;;4.18;1.95;;;;;;;22.56;37.70;97568.94;5134503;27;20026;-34
2022/11/02 00:52:03;;;;;;;3.03;2.22;;;;;;;22.50;37.95;97559.06;5134463;27;20427;-35
2022/11/02 00:54:29;;;;;;;4.30;2.13;;;;;;;22.48;37.81;97556.75;5134428;27;20054;-34
2022/11/02 00:56:55;;;;;;;4.40;2.10;;;;;;;22.47;37.85;97566.28;5134238;27;20072;-33
2022/11/02 00:59:20;;;;;;;3.25;1.95;;;;;;;22.46;38.04;97555.72;5134427;27;20019;-35
2022/11/02 01:01:46;;;;;;;4.55;2.10;;;;;;;22.48;37.80;97567.81;5116092;28;20046;-34
2022/11/02 01:04:19;;;;;;;3.97;2.08;;;;;;;22.49;37.87;97561.06;5134299;28;20105;-35
2022/11/02 01:06:45;;;;;;;2.50;1.75;;;;;;;22.49;37.92;97558.28;5134355;28;20031;-34
2022/11/02 01:09:12;;;;;;;3.00;2.00;;;;;;;22.54;37.45;97554.84;5134437;28;20023;-34
2022/11/02 01:11:39;;;;;;;2.88;1.77;;;;;;;22.47;38.07;97551.72;5134217;28;20055;-34
2022/11/02 01:14:05;;;;;;;3.20;1.90;;;;;;;22.53;37.98;97553.31;5134203;28;20138;-35
2022/11/02 01:16:31;;;;;;;2.50;1.70;;;;;;;22.49;38.26;97549.22;5134179;28;20484;-35
2022/11/02 01:18:57;;;;;;;4.22;1.73;;;;;;;22.47;37.76;97554.47;5134263;28;20055;-35
2022/11/02 01:21:23;;;;;;;2.85;1.75;;;;;;;22.46;38.16;97552.94;5134220;28;20514;-34
2022/11/02 01:23:49;;;;;;;3.35;1.77;;;;;;;22.47;38.11;97552.47;5134342;28;20024;-34
2022/11/02 01:26:15;;;;;;;4.55;1.80;;;;;;;22.49;38.09;97560.28;5134117;28;20042;-34
2022/11/02 01:28:41;;;;;;;2.47;1.60;;;;;;;22.54;38.15;97552.06;5134219;28;20034;-36
2022/11/02 01:31:07;;;;;;;2.63;1.58;;;;;;;22.53;38.06;97552.53;5134132;28;20027;-33
2022/11/02 01:33:33;;;;;;;2.20;1.63;;;;;;;22.46;37.92;97553.72;5133942;28;20027;-35
2022/11/02 01:36:02;;;;;;;2.10;1.50;;;;;;;22.52;38.12;97556.53;5134179;28;20035;-36
2022/11/02 01:38:27;;;;;;;3.85;1.80;;;;;;;22.50;38.05;97554.25;5115534;28;20031;-34
2022/11/02 01:40:53;;;;;;;2.63;1.80;;;;;;;22.46;38.21;97553.72;5133884;28;20028;-35
2022/11/02 01:43:32;;;;;;;3.67;1.92;;;;;;;22.45;38.18;97548.66;5133867;28;20019;-38
2022/11/02 01:46:12;;;;;;;2.88;1.50;;;;;;;22.49;38.04;97541.69;5133949;28;20415;-36
2022/11/02 01:48:42;;;;;;;3.63;1.60;;;;;;;22.48;37.96;97545.72;5133970;28;20019;-38
2022/11/02 01:51:19;;;;;;;2.05;1.67;;;;;;;22.51;38.06;97546.72;5133988;28;20068;-34
2022/11/02 01:53:48;;;;;;;3.13;1.63;;;;;;;22.50;38.24;97543.19;5134046;28;20147;-34
2022/11/02 01:56:18;;;;;;;4.57;2.05;;;;;;;22.45;38.20;97540.38;5133777;28;20379;-34
2022/11/02 01:58:50;;;;;;;3.65;1.60;;;;;;;22.50;38.39;97534.19;5133806;28;20025;-35
2022/11/02 02:01:16;;;;;;;3.30;1.77;;;;;;;22.49;38.22;97527.13;5133773;28;20050;-34
2022/11/02 02:03:42;;;;;;;3.13;1.60;;;;;;;22.49;38.25;97530.66;5134151;28;20467;-33
2022/11/02 02:06:11;;;;;;;5.45;1.77;;;;;;;22.46;38.37;97533.59;5131644;27;20500;-33
2022/11/02 02:08:47;;;;;;;4.38;1.83;;;;;;;22.46;37.79;97534.38;5138389;27;20501;-34
2022/11/02 02:11:31;;;;;;;2.20;1.60;;;;;;;22.50;37.87;97536.94;5158106;27;20029;-34
2022/11/02 02:14:12;;;;;;;4.10;1.75;;;;;;;22.46;38.29;97526.06;5158433;27;20071;-34
2022/11/02 02:17:08;;;;;;;3.85;1.73;;;;;;;22.45;38.19;97532.84;5141791;27;20165;-35
2022/11/02 02:19:49;;;;;;;4.18;2.10;;;;;;;22.42;38.50;97524.72;5137243;27;20027;-35
2022/11/02 02:22:50;;;;;;;3.47;1.95;;;;;;;22.44;38.16;97525.78;5137394;27;20027;-33
2022/11/02 02:25:21;;;;;;;3.28;1.70;;;;;;;22.44;38.26;97520.25;5137190;27;20022;-35
2022/11/02 02:28:31;;;;;;;3.42;1.85;;;;;;;22.42;38.35;97519.97;5137355;27;20080;-34
2022/11/02 02:31:07;;;;;;;2.90;1.80;;;;;;;22.41;38.15;97512.91;5137501;27;20019;-35
2022/11/02 02:33:37;;;;;;;5.30;2.58;;;;;;;22.46;38.50;97526.06;5137207;27;20030;-34
2022/11/02 02:36:32;;;;;;;3.28;1.77;;;;;;;22.45;38.40;97513.50;5118799;27;20030;-33
2022/11/02 02:39:05;;;;;;;3.45;1.90;;;;;;;22.46;38.41;97509.47;5136958;27;20107;-34
2022/11/02 02:41:41;;;;;;;3.28;2.00;;;;;;;22.39;38.56;97511.88;5136943;27;20030;-34
2022/11/02 02:44:20;;;;;;;4.22;1.55;;;;;;;22.46;38.02;97512.25;5137051;27;20023;-34
2022/11/02 02:46:58;;;;;;;2.35;1.50;;;;;;;22.44;38.24;97511.97;5136709;27;20026;-35
2022/11/02 02:49:33;;;;;;;3.50;1.90;;;;;;;22.44;38.07;97509.19;5136711;27;20448;-34
2022/11/02 02:52:00;;;;;;;2.58;1.70;;;;;;;22.43;38.21;97510.44;5136768;27;20019;-35
2022/11/02 02:54:34;;;;;;;2.88;1.60;;;;;;;22.41;37.90;97507.38;5136596;27;20081;-34
2022/11/02 02:57:05;;;;;;;3.42;1.42;;;;;;;22.41;38.12;97512.91;5136503;27;20336;-34
2022/11/02 02:59:36;;;;;;;2.25;1.60;;;;;;;22.40;38.42;97511.38;5136745;27;20015;-34
2022/11/02 03:02:06;;;;;;;4.82;1.83;;;;;;;22.39;38.33;97515.38;5136530;27;20403;-35
2022/11/02 03:04:31;;;;;;;2.20;1.50;;;;;;;22.36;38.32;97521.91;5136350;27;20057;-35
2022/11/02 03:07:00;;;;;;;2.08;1.38;;;;;;;22.36;38.17;97513.59;5136430;27;20063;-35
2022/11/02 03:09:38;;;;;;;2.75;1.73;;;;;;;22.37;38.32;97515.13;5136369;27;20034;-34
2022/11/02 03:12:33;;;;;;;3.17;1.70;;;;;;;22.40;38.08;97516.16;5136204;27;20050;-34
2022/11/02 03:14:59;;;;;;;4.60;1.67;;;;;;;22.39;38.23;97515.38;5136262;27;20023;-34
2022/11/02 03:17:52;;;;;;;3.78;1.85;;;;;;;22.41;38.14;97509.38;5136440;27;20038;-33
2022/11/02 03:20:17;;;;;;;;;;;;;;;22.44;37.94;97511.19;5136467;27;20109;-34
2022/11/02 03:22:43;;;;;;;3.40;1.90;;;;;;;22.40;37.92;97505.09;5136171;27;19947;-34
2022/11/02 03:25:29;;;;;;;3.95;1.80;;;;;;;22.37;38.32;97517.91;5136065;27;20106;-34
2022/11/02 03:28:13;;;;;;;4.35;2.00;;;;;;;22.37;38.15;97517.13;5135986;27;20026;-33
2022/11/02 03:30:48;;;;;;;3.17;1.90;;;;;;;22.38;38.20;97524.16;5136236;27;20098;-34
2022/11/02 03:33:38;;;;;;;4.45;2.00;;;;;;;22.35;38.30;97527.91;5135839;27;20046;-34
2022/11/02 03:36:11;;;;;;;3.33;1.77;;;;;;;22.38;38.09;97522.16;5136028;27;20031;-34
2022/11/02 03:39:00;;;;;;;3.13;1.70;;;;;;;22.43;38.00;97521.50;5135807;27;20015;-34
2022/11/02 03:41:28;;;;;;;4.38;2.40;;;;;;;22.37;37.91;97520.66;5135744;27;20027;-36
2022/11/02 03:44:02;;;;;;;3.17;2.35;;;;;;;22.40;37.93;97521.69;5135740;27;20102;-35
2022/11/02 03:46:31;;;;;;;5.07;2.13;;;;;;;22.37;37.91;97517.13;5135496;27;20023;-34
2022/11/02 03:48:59;;;;;;;3.17;1.90;;;;;;;22.41;37.87;97514.91;5135779;27;20015;-36
2022/11/02 03:51:27;;;;;;;3.58;1.98;;;;;;;22.34;38.24;97518.84;5135599;27;20038;-34
2022/11/02 03:54:04;;;;;;;3.78;1.80;;;;;;;22.37;37.82;97512.38;5134950;27;20023;-34
2022/11/02 03:56:52;;;;;;;3.05;2.03;;;;;;;22.38;38.23;97513.88;5134685;27;20058;-34
2022/11/02 03:59:17;;;;;;;3.70;2.15;;;;;;;22.35;38.30;97514.84;5135343;27;20029;-33
2022/11/02 04:01:46;;;;;;;2.90;2.20;;;;;;;22.33;38.10;97517.31;5135272;27;20382;-34
2022/11/02 04:04:12;;;;;;;3.10;2.08;;;;;;;22.32;38.03;97513.03;5135307;27;20019;-36
2022/11/02 04:06:39;;;;;;;4.45;2.10;;;;;;;22.43;37.94;97515.19;5135183;27;20030;-34
2022/11/02 04:09:05;;;;;;;5.15;2.65;;;;;;;22.41;38.31;97514.91;5135163;27;20060;-34
2022/11/02 04:19:45;;;;;;;5.35;2.40;;;;;;;22.39;37.89;97518.16;5155679;27;20038;-34
2022/11/02 04:27:38;;;;;;;4.57;2.28;;;;;;;22.34;38.43;97518.84;5155626;27;20134;-34
2022/11/02 04:30:04;;;;;;;4.35;2.85;;;;;;;22.36;38.23;97519.13;5155769;27;20510;-33
2022/11/02 04:35:13;;;;;;;5.85;2.67;;;;;;;22.37;38.39;97514.38;5155683;27;20033;-35
2022/11/02 04:40:24;;;;;;;6.10;2.60;;;;;;;22.26;38.32;97520.44;5155656;27;20602;-33
2022/11/02 04:42:49;;;;;;;5.72;3.00;;;;;;;22.35;38.42;97531.44;5155154;27;20035;-35
2022/11/02 04:45:15;;;;;;;5.10;2.45;;;;;;;22.38;38.46;97526.91;5155371;27;20067;-34
2022/11/02 04:47:40;;;;;;;6.47;2.70;;;;;;;22.33;38.18;97524.84;5155678;27;20029;-34
2022/11/02 04:50:06;;;;;;;9.32;3.10;;;;;;;22.36;38.51;97523.91;5155362;27;20022;-34
2022/11/02 04:52:31;;;;;;;4.95;2.65;;;;;;;22.37;38.23;97522.66;5155595;27;20026;-33
2022/11/02 04:54:57;;;;;;;4.65;2.17;;;;;;;22.39;37.92;97526.44;5155103;27;20030;-34
2022/11/02 04:57:22;;;;;;;3.85;2.80;;;;;;;22.29;38.66;97533.31;5155238;27;20022;-34
2022/11/02 04:59:48;;;;;;;7.00;3.03;;;;;;;22.30;38.29;97532.09;5155149;27;20027;-34
2022/11/02 05:02:13;;;;;;;7.85;2.80;;;;;;;22.38;38.53;97529.69;5155311;27;20015;-35
2022/11/02 05:04:39;;;;;;;5.50;2.65;;;;;;;22.36;38.38;97530.19;5155209;27;20030;-34
2022/11/02 05:07:06;;;;;;;4.80;2.47;;;;;;;22.32;38.26;97532.38;5155052;27;20490;-34
2022/11/02 05:09:32;;;;;;;5.25;2.70;;;;;;;22.36;37.94;97527.44;5154917;27;20526;-34
2022/11/02 05:11:57;;;;;;;6.13;2.90;;;;;;;22.35;38.20;97530.66;5154953;27;20054;-33
2022/11/02 05:14:23;;;;;;;5.22;2.30;;;;;;;22.29;38.36;97524.28;5155152;27;20023;-34
2022/11/02 05:16:49;;;;;;;5.95;2.55;;;;;;;22.23;37.98;97532.47;5155110;27;20018;-34
2022/11/02 05:19:14;;;;;;;6.88;3.92;;;;;;;22.32;38.14;97529.63;5155030;27;20091;-34
2022/11/02 05:21:39;;;;;;;5.45;2.97;;;;;;;22.33;38.26;97525.59;5154856;27;20026;-33
2022/11/02 05:24:06;;;;;;;8.63;3.22;;;;;;;22.34;38.00;97532.66;5155050;27;20026;-34
2022/11/02 05:26:31;;;;;;;7.15;2.63;;;;;;;22.29;37.89;97530.56;5154915;27;20019;-33
2022/11/02 05:28:57;;;;;;;6.78;2.55;;;;;;;22.35;37.95;97522.38;5136496;27;20027;-33
2022/11/02 05:31:22;;;;;;;5.38;2.60;;;;;;;22.32;38.53;97526.09;5154883;27;20090;-34
2022/11/02 05:33:48;;;;;;;5.43;3.03;;;;;;;22.29;38.22;97527.78;5154840;27;20385;-33
2022/11/02 05:36:15;;;;;;;5.65;2.70;;;;;;;22.33;38.06;97535.91;5154727;27;20030;-33
2022/11/02 05:38:40;;;;;;;9.30;3.95;;;;;;;22.36;38.04;97541.25;5154805;27;20094;-33
2022/11/02 05:41:06;;;;;;;4.32;2.45;;;;;;;22.34;38.15;97545.72;5154930;27;20048;-34
2022/11/02 05:43:31;;;;;;;7.20;2.97;;;;;;;22.33;37.95;97536.66;5155849;27;20446;-35
2022/11/02 05:45:59;;;;;;;4.63;3.03;;;;;;;22.34;38.02;97540.19;5158916;27;20030;-33
2022/11/02 05:48:26;;;;;;;6.85;2.78;;;;;;;22.31;38.05;97535.63;5158954;27;20026;-35
2022/11/02 05:50:59;;;;;;;6.70;3.00;;;;;;;22.26;38.29;97539.03;5140303;27;20382;-34
2022/11/02 05:53:25;;;;;;;;;;;;;;;22.28;38.11;97540.09;5159076;27;20034;-35
2022/11/02 05:55:51;;;;;;;9.02;2.95;;;;;;;22.27;38.00;97546.84;5158645;27;19907;-34
2022/11/02 05:58:17;;;;;;;4.90;2.92;;;;;;;22.28;38.07;97542.84;5158436;27;20419;-35
2022/11/02 06:00:43;;;;;;;6.18;2.63;;;;;;;22.29;38.14;97549.13;5158473;27;20057;-35
2022/11/02 06:03:08;;;;;;;4.78;2.88;;;;;;;22.29;38.32;97549.91;5139929;27;20053;-35
2022/11/02 06:05:36;;;;;;;6.07;3.20;;;;;;;22.28;38.08;97551.13;5158492;27;20524;-33
2022/11/02 06:08:02;;;;;;;5.43;2.70;;;;;;;22.23;38.49;97540.78;5158357;27;20041;-33
2022/11/02 06:10:29;;;;;;;3.97;2.67;;;;;;;22.32;38.04;97553.72;5158241;27;20462;-36
2022/11/02 06:12:57;;;;;;;6.40;2.90;;;;;;;22.31;38.55;97558.47;5158139;27;20074;-34
2022/11/02 06:15:22;;;;;;;5.03;2.97;;;;;;;22.28;38.21;97564.97;5158290;27;20049;-37
2022/11/02 06:17:48;;;;;;;5.38;2.90;;;;;;;22.27;38.30;97568.19;5158228;27;20466;-34
2022/11/02 06:20:14;;;;;;;8.45;4.13;;;;;;;22.23;38.38;97568.41;5158059;27;20057;-33
2022/11/02 06:22:40;;;;;;;7.50;3.25;;;;;;;22.26;38.48;97569.44;5158174;27;20097;-35
2022/11/02 06:25:07;;;;;;;7.18;3.13;;;;;;;22.28;38.45;97567.72;5138825;27;20030;-33
2022/11/02 06:27:32;;;;;;;5.40;3.40;;;;;;;22.30;38.37;97570.78;5131270;27;20031;-34
2022/11/02 06:29:58;;;;;;;4.68;2.90;;;;;;;22.17;38.57;97576.59;5130400;27;20019;-34
2022/11/02 06:32:23;;;;;;;6.90;3.20;;;;;;;22.28;38.58;97575.25;5129086;27;20545;-33
2022/11/02 06:34:49;;;;;;;5.93;3.05;;;;;;;22.20;38.67;97580.41;5129270;27;20030;-35
2022/11/02 06:37:14;;;;;;;9.10;3.78;;;;;;;22.19;38.52;97587.16;5130120;27;20030;-35
2022/11/02 06:39:40;;;;;;;7.03;3.30;;;;;;;22.24;38.73;97580.22;5129171;27;20463;-34
2022/11/02 06:42:05;;;;;;;7.38;2.97;;;;;;;22.18;38.80;97580.13;5127733;27;20047;-37
2022/11/02 06:44:31;;;;;;;7.00;3.67;;;;;;;22.24;38.64;97597.56;5134514;27;20367;-34
2022/11/02 06:46:56;;;;;;;12.88;4.60;;;;;;;22.12;39.25;97595.84;5135011;27;20034;-34
2022/11/02 06:49:22;;;;;;;11.07;4.03;;;;;;;22.20;38.71;97591.47;5144264;27;20014;-33
2022/11/02 06:51:50;;;;;;;7.93;4.40;;;;;;;22.09;39.30;97592.03;5155653;27;20054;-34
2022/11/02 06:54:16;;;;;;;9.20;4.05;;;;;;;22.15;39.10;97589.34;5154605;27;20079;-34
2022/11/02 06:56:42;;;;;;;8.40;3.38;;;;;;;22.29;38.84;97594.13;5155343;27;20030;-33
2022/11/02 06:59:07;;;;;;;8.77;3.70;;;;;;;22.12;39.18;97595.84;5155469;27;20061;-35
2022/11/02 07:01:33;;;;;;;8.85;3.88;;;;;;;22.18;38.57;97600.22;5155338;27;20027;-34
2022/11/02 07:04:00;;;;;;;9.10;3.75;;;;;;;22.23;38.90;97607.09;5155364;27;20421;-35
2022/11/02 07:06:25;;;;;;;8.20;4.30;;;;;;;22.24;38.85;97603.09;5154848;27;20073;-34
2022/11/02 07:08:51;;;;;;;6.90;3.78;;;;;;;22.20;38.76;97608.03;5155044;27;20046;-34
2022/11/02 07:11:16;;;;;;;6.70;3.67;;;;;;;22.21;39.10;97609.56;5155068;27;20047;-37
2022/11/02 07:13:42;;;;;;;5.82;3.95;;;;;;;22.19;39.40;97604.50;5155246;27;20482;-36
2022/11/02 07:16:08;;;;;;;20.80;5.78;;;;;;;21.00;42.65;97621.13;5154660;27;20027;-36
2022/11/02 07:18:33;;;;;;;22.08;7.20;;;;;;;20.98;43.21;97629.09;5154210;27;20022;-36
2022/11/02 07:20:58;;;;;;;19.10;5.90;;;;;;;21.35;42.26;97624.19;5154310;27;20027;-35
2022/11/02 07:23:25;;;;;;;12.70;4.43;;;;;;;21.62;41.65;97634.28;5154882;27;20029;-37
2022/11/02 07:25:50;;;;;;;19.02;5.07;;;;;;;21.61;41.62;97623.69;5145339;27;20494;-36
2022/11/02 07:28:16;;;;;;;20.10;5.47;;;;;;;21.77;41.40;97634.28;5133496;27;20023;-36
2022/11/02 07:30:41;;;;;;;11.23;4.82;;;;;;;21.84;41.09;97628.44;5133524;27;20030;-36
2022/11/02 07:33:07;;;;;;;14.30;4.70;;;;;;;21.88;41.09;97631.03;5133655;27;20038;-36
2022/11/02 07:35:35;;;;;;;16.75;4.43;;;;;;;21.83;41.11;97624.91;5134012;27;20387;-36
2022/11/02 07:38:04;;;;;;;10.00;3.95;;;;;;;21.77;41.27;97626.00;5133495;27;20023;-36
2022/11/02 07:40:31;;;;;;;11.50;4.15;;;;;;;21.81;41.29;97621.09;5133516;27;20057;-36
2022/11/02 07:42:57;;;;;;;10.50;4.28;;;;;;;21.78;41.38;97622.78;5131510;27;20467;-35
2022/11/02 07:45:23;;;;;;;12.02;4.60;;;;;;;21.77;41.05;97621.25;5132322;27;20030;-34
2022/11/02 07:47:49;;;;;;;16.10;4.50;;;;;;;21.90;40.94;97623.75;5132951;27;20464;-37
2022/11/02 07:50:17;;;;;;;12.07;4.47;;;;;;;22.10;40.72;97629.47;5133360;27;20042;-34
2022/11/02 07:52:44;;;;;;;11.63;4.10;;;;;;;22.12;40.57;97626.22;5133445;27;20031;-35
2022/11/02 07:55:11;;;;;;;8.85;4.28;;;;;;;22.11;40.57;97628.22;5132880;27;20061;-33
2022/11/02 07:57:36;;;;;;;20.73;5.00;;;;;;;22.14;40.52;97632.03;5133361;27;20023;-33
2022/11/02 08:00:02;;;;;;;12.13;4.55;;;;;;;22.11;40.93;97628.22;5133418;27;20091;-33
2022/11/02 08:02:28;;;;;;;10.25;4.18;;;;;;;22.15;40.42;97628.03;5133705;27;20107;-35
2022/11/02 08:04:54;;;;;;;10.15;4.20;;;;;;;22.10;41.05;97631.47;5133335;27;20053;-34
2022/11/02 08:07:20;;;;;;;11.63;4.05;;;;;;;22.14;40.74;97626.50;5132295;27;20454;-34
2022/11/02 08:09:45;;;;;;;9.77;3.90;;;;;;;22.18;40.88;97630.63;5133286;27;20023;-34
2022/11/02 08:12:11;;;;;;;9.70;4.25;;;;;;;22.18;40.43;97619.56;5133069;27;20451;-33
2022/11/02 08:14:36;;;;;;;9.23;4.38;;;;;;;22.14;40.75;97621.72;5133209;27;20130;-35
2022/11/02 08:17:02;;;;;;;8.82;4.18;;;;;;;22.15;40.68;97628.78;5133174;27;20019;-34
2022/11/02 08:19:27;;;;;;;7.75;4.13;;;;;;;22.18;40.59;97622.31;5132574;27;20474;-35
2022/11/02 08:21:56;;;;;;;9.65;4.25;;;;;;;22.12;40.76;97626.22;5132962;27;20034;-34
2022/11/02 08:24:21;;;;;;;6.75;3.47;;;;;;;22.15;40.42;97616.97;5132937;27;20027;-35
2022/11/02 08:26:47;;;;;;;7.10;3.60;;;;;;;22.15;40.62;97622.50;5132904;27;20110;-33
2022/11/02 08:29:12;;;;;;;11.35;3.55;;;;;;;22.16;40.75;97616.50;5132917;27;20015;-33
2022/11/02 08:31:38;;;;;;;6.88;3.58;;;;;;;22.11;40.52;97621.94;5132531;27;20031;-34
2022/11/02 08:34:03;;;;;;;8.68;3.38;;;;;;;22.13;40.60;97622.97;5132843;27;20026;-35
2022/11/02 08:36:29;;;;;;;7.13;3.65;;;;;;;22.17;40.34;97617.28;5132844;27;20019;-35
2022/11/02 08:38:54;;;;;;;5.53;3.33;;;;;;;22.20;40.25;97616.31;5142456;27;20033;-33
2022/11/02 08:41:19;;;;;;;7.30;3.13;;;;;;;22.20;40.63;97614.31;5155517;27;20019;-33
2022/11/02 08:43:45;;;;;;;11.63;3.50;;;;;;;22.17;40.32;97604.22;5155525;27;20382;-34
2022/11/02 08:46:10;;;;;;;4.70;2.75;;;;;;;22.21;40.15;97610.31;5155336;27;20033;-36
2022/11/02 08:48:36;;;;;;;7.30;3.70;;;;;;;22.16;40.66;97604.69;5155336;27;20025;-33
2022/11/02 08:51:02;;;;;;;5.93;3.25;;;;;;;22.19;40.70;97610.03;5155258;27;20040;-33
2022/11/02 08:53:27;;;;;;;6.25;3.10;;;;;;;22.15;40.39;97605.91;5155119;27;20021;-33
2022/11/02 08:55:57;;;;;;;6.43;2.90;;;;;;;22.15;40.28;97608.69;5155304;27;20069;-34
2022/11/02 08:58:22;;;;;;;4.85;3.00;;;;;;;21.61;41.80;97596.84;5155322;27;20022;-33
2022/11/02 09:00:48;;;;;;;11.35;3.75;;;;;;;20.71;44.15;97605.16;5155100;27;20493;-35
2022/11/02 09:03:15;;;;;;;7.75;3.03;;;;;;;21.34;42.78;97606.09;5154870;27;20019;-35
2022/11/02 09:05:43;;;;;;;7.93;3.10;;;;;;;21.71;41.94;97608.59;5155312;27;20030;-33
2022/11/02 09:08:15;;;;;;;8.13;2.90;;;;;;;21.81;41.61;97593.47;5155111;27;20026;-34
2022/11/02 09:10:41;;;;;;;10.65;3.05;;;;;;;21.78;41.66;97606.22;5155440;27;20477;-34
2022/11/02 09:13:10;;;;;;;6.32;3.20;;;;;;;21.88;41.34;97604.16;5154797;27;20051;-34
2022/11/02 09:15:37;;;;;;;5.85;2.47;;;;;;;22.03;41.08;97604.19;5155044;27;20107;-35
2022/11/02 09:18:03;;;;;;;7.20;2.90;;;;;;;22.01;41.04;97604.66;5156891;27;20030;-33
2022/11/02 09:20:29;;;;;;;7.65;2.45;;;;;;;22.03;41.13;97609.72;5159291;27;20050;-34
2022/11/02 09:22:55;;;;;;;5.10;2.33;;;;;;;22.09;41.08;97591.25;5159230;27;20046;-33
2022/11/02 09:25:20;;;;;;;6.72;3.22;;;;;;;22.15;40.76;97600.41;5159184;27;20487;-34
2022/11/02 09:27:45;;;;;;;8.15;2.50;;;;;;;22.08;40.97;97598.78;5159530;27;20031;-33
2022/11/02 09:30:12;;;;;;;8.57;2.65;;;;;;;22.11;40.68;97610.91;5159229;27;20025;-34
2022/11/02 09:32:38;;;;;;;5.13;2.67;;;;;;;22.17;40.72;97604.22;5159097;27;20026;-34
2022/11/02 09:35:08;;;;;;;4.90;2.90;;;;;;;22.16;41.00;97612.97;5159047;27;20026;-35
2022/11/02 09:37:33;;;;;;;6.93;2.40;;;;;;;22.19;40.54;97612.78;5159244;27;20385;-33
2022/11/02 09:39:59;;;;;;;5.70;2.70;;;;;;;22.10;40.88;97603.84;5158941;27;20027;-33
2022/11/02 09:42:33;;;;;;;4.32;2.63;;;;;;;22.20;40.27;97597.75;5158840;27;20026;-35
2022/11/02 09:45:06;;;;;;;4.72;2.45;;;;;;;22.10;40.93;97598.31;5158810;27;20424;-34
2022/11/02 09:47:40;;;;;;;3.67;2.28;;;;;;;22.12;40.63;97598.59;5158794;27;20033;-34
2022/11/02 09:50:15;;;;;;;8.63;2.67;;;;;;;22.16;40.48;97596.41;5158974;27;20400;-34
2022/11/02 09:52:43;;;;;;;3.92;2.35;;;;;;;22.12;40.81;97601.38;5158985;27;20447;-34
2022/11/02 09:55:17;;;;;;;6.72;3.03;;;;;;;22.18;40.41;97602.97;5158548;27;20029;-34
2022/11/02 09:57:47;;;;;;;6.28;2.45;;;;;;;22.10;40.63;97603.84;5158649;27;20027;-34
2022/11/02 10:00:14;;;;;;;4.10;2.78;;;;;;;22.12;40.63;97606.91;5158465;27;20067;-35
2022/11/02 10:02:39;;;;;;;5.35;2.42;;;;;;;22.14;40.38;97599.63;5158756;27;20489;-34
2022/11/02 10:05:14;;;;;;;2.97;2.40;;;;;;;22.03;40.60;97602.19;5158351;27;20026;-34
2022/11/02 10:08:06;;;;;;;4.35;2.67;;;;;;;21.98;41.34;97593.78;5158336;27;20052;-34
2022/11/02 10:10:59;;;;;;;5.93;2.42;;;;;;;22.05;41.01;97593.44;5158359;27;20128;-34
2022/11/02 10:13:36;;;;;;;4.57;2.92;;;;;;;22.06;40.89;97586.69;5158136;27;20054;-36
2022/11/02 10:16:11;;;;;;;4.93;2.38;;;;;;;21.95;41.08;97580.94;5158268;27;20483;-34
2022/11/02 10:18:39;;;;;;;5.82;2.50;;;;;;;22.06;40.66;97581.16;5158182;27;20027;-33
2022/11/02 10:21:12;;;;;;;5.28;2.45;;;;;;;22.16;40.66;97583.34;5158070;27;20026;-35
2022/11/02 10:23:48;;;;;;;5.32;2.55;;;;;;;22.19;40.42;97579.63;5158100;27;20018;-35
2022/11/02 10:26:20;;;;;;;5.43;2.50;;;;;;;22.18;40.26;97572.59;5158205;27;20459;-34
2022/11/02 10:28:49;;;;;;;5.28;2.70;;;;;;;21.99;40.73;97579.53;5157455;27;20062;-33
2022/11/02 10:31:23;;;;;;;3.95;2.30;;;;;;;22.10;40.38;97578.97;5157577;27;20105;-35
2022/11/02 10:33:49;;;;;;;5.35;2.53;;;;;;;22.21;40.63;97568.88;5158092;27;20111;-33
2022/11/02 10:36:30;;;;;;;3.58;2.45;;;;;;;21.91;40.69;97569.28;5157800;27;20113;-34
2022/11/02 10:39:15;;;;;;;9.45;3.08;;;;;;;21.82;41.11;97568.16;5122122;27;20023;-34
2022/11/02 10:41:53;;;;;;;5.60;2.83;;;;;;;21.60;40.75;97573.25;5137155;27;20050;-34
2022/11/02 10:44:42;;;;;;;4.78;2.55;;;;;;;21.74;41.81;97566.25;5137259;27;20139;-34
2022/11/02 10:47:16;;;;;;;6.30;2.65;;;;;;;21.86;40.75;97557.69;5137150;27;20019;-34
2022/11/02 10:49:47;;;;;;;5.45;2.45;;;;;;;21.98;40.71;97557.88;5136807;27;20018;-35
2022/11/02 10:52:15;;;;;;;4.13;2.20;;;;;;;21.80;40.25;97551.28;5136672;27;20023;-33
2022/11/02 10:54:40;;;;;;;4.82;2.40;;;;;;;21.85;40.46;97555.41;5136876;27;20391;-33
2022/11/02 10:57:17;;;;;;;4.55;2.78;;;;;;;22.14;40.62;97549.91;5136810;27;20030;-33
2022/11/02 10:59:43;;;;;;;4.25;2.75;;;;;;;22.26;40.06;97541.78;5136516;27;20019;-33
2022/11/02 11:02:13;;;;;;;5.38;2.50;;;;;;;22.12;38.92;97541.34;5137002;27;20389;-36
2022/11/02 11:04:40;;;;;;;6.05;2.97;;;;;;;22.05;38.13;97540.94;5136441;27;20015;-33
2022/11/02 11:07:15;;;;;;;7.85;2.03;;;;;;;21.39;39.23;97541.19;5136506;27;20023;-34
2022/11/02 11:09:55;;;;;;;3.70;2.40;;;;;;;21.50;39.65;97544.19;5136424;27;20066;-33
2022/11/02 11:12:32;;;;;;;5.15;2.30;;;;;;;21.81;39.94;97541.78;5136357;27;20053;-35
2022/11/02 11:15:01;;;;;;;3.97;2.10;;;;;;;21.84;40.07;97529.78;5136252;27;20023;-33
2022/11/02 11:17:36;;;;;;;3.22;2.38;;;;;;;22.11;39.73;97534.31;5136433;27;20071;-34
2022/11/02 11:20:05;;;;;;;4.57;2.30;;;;;;;22.11;39.54;97531.53;5136224;27;20023;-34
2022/11/02 11:22:38;;;;;;;5.57;2.53;;;;;;;22.02;39.28;97533.63;5136346;27;20531;-34
2022/11/02 11:25:24;;;;;;;4.20;2.10;;;;;;;22.19;39.46;97523.63;5136176;27;20034;-33
2022/11/02 11:27:58;;;;;;;3.22;2.20;;;;;;;22.25;39.65;97518.19;5135917;27;20092;-36
2022/11/02 11:30:27;;;;;;;4.53;2.38;;;;;;;22.24;39.44;97522.97;5136053;27;20019;-37
2022/11/02 11:32:54;;;;;;;4.60;2.15;;;;;;;22.23;39.34;97512.38;5135937;27;20068;-34
2022/11/02 11:35:21;;;;;;;4.25;2.17;;;;;;;22.34;39.36;97518.09;5135932;27;20023;-34
2022/11/02 11:38:13;;;;;;;4.93;2.10;;;;;;;22.31;39.12;97507.97;5135903;27;20023;-33
2022/11/02 11:40:42;;;;;;;2.97;2.00;;;;;;;22.34;38.89;97507.03;5136013;27;20024;-34
2022/11/02 11:43:16;;;;;;;6.85;2.17;;;;;;;22.16;37.58;97513.50;5135755;27;20508;-35
2022/11/02 11:46:03;;;;;;;3.50;1.80;;;;;;;22.15;37.73;97512.75;5135917;27;20034;-34
2022/11/02 11:48:37;;;;;;;5.07;1.60;;;;;;;21.97;38.71;97504.66;5135671;27;20047;-34
2022/11/02 11:51:04;;;;;;;2.90;1.70;;;;;;;22.26;38.95;97506.63;5135824;27;20379;-35
2022/11/02 11:53:29;;;;;;;4.05;2.00;;;;;;;22.28;38.86;97503.41;5135581;27;20364;-35
2022/11/02 11:55:58;;;;;;;4.47;2.00;;;;;;;22.31;38.89;97507.97;5135466;27;20106;-34
2022/11/02 11:58:26;;;;;;;3.53;2.00;;;;;;;22.29;38.81;97500.16;5135359;27;20027;-36
2022/11/02 12:01:14;;;;;;;4.28;1.80;;;;;;;22.32;38.20;97488.16;5135601;27;20159;-34
2022/11/02 12:03:55;;;;;;;2.55;1.83;;;;;;;22.32;38.80;97493.69;5135726;27;20019;-34